Lähistön asemien METAR-raportit

 

EFJY - Jyvaskyla (mil/C, Finland
Etäisyys Sääasemalta: E 40km
Päivitetty: 19/07/2019 10:50
Joitain Pilviä
Joitain Pilviä
 Tuulen suunta P
Tuuli: P 20 km/h
Lämpötila: 21°C
Kastepiste: 9°C
Ilmankosteus: 46%
Ilmanpaine: 1011 hPa
Pilvisyys: Joitain Pilviä
Näkyvyys: 10 km
Pilvisyystiedot: Joitain Pilviä 1433 m
2019/07/19 10:50 EFJY 191050Z AUTO 35011KT 330V040 9999 FEW047 21/09 Q1011
EFKU - Kuopio (mil/Civ), Finland
Etäisyys Sääasemalta: IKo 106km
Päivitetty: 19/07/2019 10:50
Enimmäkseen pilvistä
Enimmäkseen pilvistä
 Tuulen suunta PLu
Tuuli: PLu 22 km/h
Lämpötila: 19°C
Kastepiste: 13°C
Ilmankosteus: 68%
Ilmanpaine: 1010 hPa
Pilvisyys: Enimmäkseen pilvistä
Näkyvyys: 10 km
Pilvisyystiedot: Joitain Pilviä 884 m
Enimmäkseen pilvistä 1067 m
Enimmäkseen pilvistä 3566 m
2019/07/19 10:50 EFKU 191050Z AUTO 33012KT 9999 FEW029 BKN035 BKN117 19/13 Q1010
EFHA - Halli (fin-Afb), Finland
Etäisyys Sääasemalta: ELo 113km
Päivitetty: 19/07/2019 10:50
Selkeätä
Selkeätä
 Tuulen suunta P
Tuuli: P 22 km/h
Lämpötila: 21°C
Kastepiste: 7°C
Ilmankosteus: 40%
Ilmanpaine: 1011 hPa
Yhteenveto: Selkeätä
Näkyvyys: Enemmän Kuin 10 km
2019/07/19 10:50 EFHA 191050Z AUTO 35012KT 300V030 CAVOK 21/07 Q1011
 
EFMI - Mikkeli, Finland
Etäisyys Sääasemalta: EKa 140km
Päivitetty: 19/07/2019 10:50
Heikkoa sadetta, Kuurottaisia sateita, Pilvistä
Heikkoa sadetta, Kuurottaisia sateita, Pilvistä
 Tuulen suunta Ko
Tuuli: Ko 6 km/h
Lämpötila: 15°C
Kastepiste: 15°C
Ilmankosteus: 100%
Ilmanpaine: 1010 hPa
Yhteenveto: Heikkoa sadetta, Kuurottaisia sateita
Pilvisyys: Pilvistä
Näkyvyys: 10 km
Pilvisyystiedot: Joitain Pilviä 335 m
Pilvistä 549 m
2019/07/19 10:50 EFMI 191050Z AUTO 05003KT 9999 -SHRA FEW011 OVC018 15/15 Q1010
EFSI - Seinajoki-Ilmajo, Finland
Etäisyys Sääasemalta: L 150km
Päivitetty: 19/07/2019 10:50
Selkeätä
Selkeätä
 Tuulen suunta varies
Tuuli: varies 11 km/h
Lämpötila: 21°C
Kastepiste: 9°C
Ilmankosteus: 46%
Ilmanpaine: 1012 hPa
Yhteenveto: Selkeätä
Näkyvyys: Enemmän Kuin 10 km
2019/07/19 10:50 EFSI 191050Z AUTO VRB06KT CAVOK 21/09 Q1012
EFKK - Kruunupyy, Finland
Etäisyys Sääasemalta: Lu 170km
Päivitetty: 19/07/2019 10:50
Joitain Pilviä
Joitain Pilviä
 Tuulen suunta PLu
Tuuli: PLu 22 km/h
Lämpötila: 20°C
Kastepiste: 8°C
Ilmankosteus: 46%
Ilmanpaine: 1013 hPa
Pilvisyys: Joitain Pilviä
Näkyvyys: 10 km
Pilvisyystiedot: Joitain Pilviä 1372 m
2019/07/19 10:50 EFKK 191050Z 34012KT 290V010 9999 FEW045 20/08 Q1013
 
EFSA - Savonlinna (aut), Finland
Etäisyys Sääasemalta: IKa 186km
Päivitetty: 19/07/2019 10:50
Heikkoa sadetta, Kuurottaisia sateita, Pilvistä
Heikkoa sadetta, Kuurottaisia sateita, Pilvistä
 Tuulen suunta P
Tuuli: P 13 km/h
Lämpötila: 15°C
Kastepiste: 14°C
Ilmankosteus: 94%
Ilmanpaine: 1009 hPa
Yhteenveto: Heikkoa sadetta, Kuurottaisia sateita
Pilvisyys: Pilvistä
Näkyvyys: 10 km
Pilvisyystiedot: Pilvistä 457 m
2019/07/19 10:50 EFSA 191050Z 36007KT 340V090 9999 -SHRA OVC015 15/14 Q1009
EFTP - Tampere/Pirkkala, Finland
Etäisyys Sääasemalta: Lo 187km
Päivitetty: 19/07/2019 10:50
Selkeätä
Selkeätä
 Tuulen suunta P
Tuuli: P 19 km/h
Lämpötila: 21°C
Kastepiste: 9°C
Ilmankosteus: 46%
Ilmanpaine: 1012 hPa
Yhteenveto: Selkeätä
Näkyvyys: Enemmän Kuin 10 km
2019/07/19 10:50 EFTP 191050Z AUTO 01010KT CAVOK 21/09 Q1012
EFKI - Kajaani, Finland
Etäisyys Sääasemalta: PKo 192km
Päivitetty: 19/07/2019 10:50
Enimmäkseen pilvistä
Enimmäkseen pilvistä
 Tuulen suunta Lu
Tuuli: Lu 13 km/h
Lämpötila: 17°C
Kastepiste: 13°C
Ilmankosteus: 77%
Ilmanpaine: 1012 hPa
Pilvisyys: Enimmäkseen pilvistä
Näkyvyys: 10 km
Pilvisyystiedot: Enimmäkseen pilvistä 640 m
Enimmäkseen pilvistä 1920 m
2019/07/19 10:50 EFKI 191050Z AUTO 32007KT 9999 BKN021 BKN063 17/13 Q1012
 
EFJO - Joensuu, Finland
Etäisyys Sääasemalta: I 196km
Päivitetty: 19/07/2019 10:20
Rain showers, Pilvistä
Rain showers, Pilvistä
 Tuulen suunta P
Tuuli: P 15 km/h
Lämpötila: 15°C
Kastepiste: 14°C
Ilmankosteus: 94%
Ilmanpaine: 1009 hPa
Yhteenveto: Rain Showers
Pilvisyys: Pilvistä
Näkyvyys: 10 km
Pilvisyystiedot: Puolipilvistä 152 m
Pilvistä 1494 m
2019/07/19 10:20 EFJO 191020Z AUTO 35008KT 300V020 9999 SHRA SCT005 OVC049 15/14 Q1009